Time;durP1;ratioP1;P1;durP2;ratioP2;P2;SDS_P1;SDS_P2;PMS_P1;PMS_P2;Temp;Humidity;BMP_temperature;BMP_pressure;BME280_temperature;BME280_humidity;BME280_pressure;Samples;Min_cycle;Max_cycle;Signal;HPM_P1;HPM_P2
2023/10/05 00:03:44;;;;;;;0.10;0.10;;;;;;;21.02;59.74;102219.84;5072368;28;20033;-72
2023/10/05 00:06:13;;;;;;;0.20;0.20;;;;;;;20.63;61.21;102230.13;5071789;28;20380;-70
2023/10/05 00:08:43;;;;;;;0.20;0.20;;;;;;;20.75;61.57;102223.44;5070695;28;20136;-71
2023/10/05 00:11:09;;;;;;;0.10;0.10;;;;;;;21.18;59.79;102225.19;5070766;28;20031;-72
2023/10/05 00:13:34;;;;;;;0.20;0.20;;;;;;;20.91;61.19;102216.19;5052015;28;20033;-73
2023/10/05 00:16:02;;;;;;;0.10;0.10;;;;;;;20.85;61.16;102218.03;5052042;28;20041;-71
2023/10/05 00:18:28;;;;;;;0.10;0.10;;;;;;;21.13;59.75;102219.66;5050326;28;20036;-72
2023/10/05 00:20:53;;;;;;;0.10;0.10;;;;;;;21.41;58.79;102216.59;5051735;28;20029;-72
2023/10/05 00:23:19;;;;;;;0.20;0.20;;;;;;;21.51;58.34;102226.78;5052214;28;20075;-73
2023/10/05 00:25:45;;;;;;;0.10;0.10;;;;;;;21.31;58.14;102226.63;5051779;28;20047;-72
2023/10/05 00:28:11;;;;;;;0.10;0.10;;;;;;;20.32;61.70;102226.28;5051999;28;20515;-72
2023/10/05 00:30:37;;;;;;;0.10;0.10;;;;;;;20.99;60.18;102218.44;5052343;28;20378;-72
2023/10/05 00:33:09;;;;;;;0.10;0.10;;;;;;;20.87;60.06;102217.81;5054446;28;20040;-71
2023/10/05 00:35:37;;;;;;;0.10;0.10;;;;;;;20.83;60.17;102217.47;5051859;28;20044;-70
2023/10/05 00:38:35;;;;;;;0.10;0.10;;;;;;;20.99;59.61;102223.91;5051991;28;20112;-73
2023/10/05 00:41:00;;;;;;;0.20;0.20;;;;;;;20.93;60.01;102223.03;5048562;28;20036;-73
2023/10/05 00:43:26;;;;;;;0.17;0.17;;;;;;;21.54;58.40;102221.59;5051904;28;20643;-71
2023/10/05 00:45:56;;;;;;;0.10;0.10;;;;;;;21.13;60.55;102227.88;5051411;28;20040;-72
2023/10/05 00:48:41;;;;;;;0.10;0.10;;;;;;;21.57;58.35;102226.56;5051057;28;20043;-73
2023/10/05 00:51:13;;;;;;;0.10;0.10;;;;;;;20.77;60.57;102214.97;5051042;28;20056;-72
2023/10/05 00:53:39;;;;;;;0.10;0.10;;;;;;;20.47;62.54;102217.41;5034164;28;20035;-71
2023/10/05 00:56:11;;;;;;;0.10;0.10;;;;;;;21.06;59.71;102213.63;5072055;28;20013;-72
2023/10/05 00:58:42;;;;;;;0.10;0.10;;;;;;;21.05;60.62;102205.69;5070690;28;20487;-72
2023/10/05 01:01:15;;;;;;;;;;;;;;;21.44;59.75;102210.63;5071801;28;20492;-72
2023/10/05 01:06:55;;;;;;;0.13;0.13;;;;;;;20.63;61.98;102202.81;5071208;28;20568;-71
2023/10/05 01:09:39;;;;;;;0.10;0.10;;;;;;;22.41;56.04;102196.25;5070239;28;20032;-73
2023/10/05 01:14:52;;;;;;;0.10;0.10;;;;;;;21.14;60.24;102207.66;5070389;28;20077;-70
2023/10/05 01:17:22;;;;;;;0.13;0.13;;;;;;;21.48;59.27;102203.50;5050796;28;20037;-72
2023/10/05 01:19:56;;;;;;;0.10;0.10;;;;;;;20.72;62.29;102209.44;5050320;28;20030;-72
2023/10/05 01:22:40;;;;;;;0.10;0.10;;;;;;;21.08;60.82;102208.72;5049511;28;20056;-71
2023/10/05 01:25:08;;;;;;;0.10;0.10;;;;;;;21.20;60.53;102195.69;5049669;28;20028;-73
2023/10/05 01:27:38;;;;;;;0.10;0.10;;;;;;;21.95;58.07;102194.47;5031550;28;20025;-72
2023/10/05 01:30:04;;;;;;;0.10;0.10;;;;;;;20.80;61.78;102200.78;5068329;28;20040;-71
2023/10/05 01:32:29;;;;;;;0.10;0.10;;;;;;;21.16;61.08;102191.81;5075011;28;20074;-66
2023/10/05 01:34:55;;;;;;;0.10;0.10;;;;;;;22.05;57.86;102189.03;5050430;28;20381;-72
2023/10/05 01:37:25;;;;;;;0.10;0.10;;;;;;;21.66;58.87;102199.53;5049352;28;20029;-72
2023/10/05 01:39:52;;;;;;;0.10;0.10;;;;;;;20.82;62.01;102201.34;5048205;28;20068;-72
2023/10/05 01:42:17;;;;;;;0.10;0.10;;;;;;;21.38;59.86;102203.47;5047705;28;20044;-71
2023/10/05 01:44:51;;;;;;;0.20;0.20;;;;;;;21.52;60.68;102195.63;5049582;28;20025;-72
2023/10/05 01:47:18;;;;;;;0.10;0.10;;;;;;;22.02;58.36;102200.50;5049798;28;20033;-72
2023/10/05 01:49:46;;;;;;;0.10;0.10;;;;;;;21.63;59.44;102203.59;5048891;28;20052;-72
2023/10/05 01:52:17;;;;;;;0.10;0.10;;;;;;;21.12;61.85;102195.34;5049395;28;20063;-71
2023/10/05 01:54:44;;;;;;;0.20;0.20;;;;;;;20.35;64.90;102192.13;5049736;28;20041;-71
2023/10/05 01:57:12;;;;;;;0.17;0.17;;;;;;;20.78;63.58;102190.13;5052058;28;20550;-70
2023/10/05 01:59:39;;;;;;;0.10;0.10;;;;;;;21.61;61.67;102204.94;5070799;28;20032;-70
2023/10/05 02:02:09;;;;;;;0.10;0.10;;;;;;;21.59;61.25;102194.28;5071079;28;20452;-71
2023/10/05 02:04:38;;;;;;;0.10;0.10;;;;;;;21.08;62.70;102186.84;5070584;28;20094;-73
2023/10/05 02:07:03;;;;;;;0.10;0.10;;;;;;;21.36;62.49;102191.13;5070576;28;20416;-72
2023/10/05 02:09:30;;;;;;;0.20;0.20;;;;;;;21.52;62.00;102193.69;5070149;28;20033;-72
2023/10/05 02:12:01;;;;;;;0.10;0.10;;;;;;;21.25;63.06;102190.22;5062230;28;20432;-71
2023/10/05 02:14:26;;;;;;;0.10;0.10;;;;;;;21.08;63.79;102192.31;5051296;28;20029;-71
2023/10/05 02:16:52;;;;;;;0.10;0.10;;;;;;;21.54;62.05;102180.56;5047947;28;20040;-71
2023/10/05 02:19:19;;;;;;;0.17;0.17;;;;;;;21.54;62.47;102179.75;5050163;28;20573;-71
2023/10/05 02:21:45;;;;;;;0.10;0.10;;;;;;;21.22;63.95;102177.09;5050431;28;20492;-71
2023/10/05 02:24:22;;;;;;;0.20;0.20;;;;;;;21.08;63.63;102181.38;5051120;28;20073;-70
2023/10/05 02:29:21;;;;;;;0.10;0.10;;;;;;;21.38;63.50;102186.22;5049876;28;20076;-71
2023/10/05 02:34:21;;;;;;;0.10;0.10;;;;;;;20.92;64.75;102183.13;5049601;28;20457;-72
2023/10/05 02:36:46;;;;;;;0.10;0.10;;;;;;;21.27;63.90;102184.50;5049463;28;20033;-71
2023/10/05 02:39:12;;;;;;;0.15;0.15;;;;;;;22.43;59.43;102183.94;5048250;28;20025;-71
2023/10/05 02:41:38;;;;;;;0.10;0.10;;;;;;;21.68;61.78;102184.47;5049645;28;20048;-72
2023/10/05 02:44:27;;;;;;;0.20;0.20;;;;;;;22.15;60.83;102187.13;5049613;28;20385;-74
2023/10/05 02:46:53;;;;;;;0.13;0.13;;;;;;;21.34;62.69;102185.09;5049626;28;20036;-72
2023/10/05 02:49:19;;;;;;;0.10;0.10;;;;;;;21.35;63.45;102182.09;5049284;28;20123;-71
2023/10/05 02:51:49;;;;;;;0.10;0.10;;;;;;;21.19;63.17;102174.88;5049735;28;20029;-72
2023/10/05 02:54:15;;;;;;;0.20;0.20;;;;;;;21.25;63.11;102179.28;5050049;28;20030;-73
2023/10/05 02:56:40;;;;;;;0.30;0.30;;;;;;;21.20;63.30;102175.72;5049595;28;20049;-71
2023/10/05 02:59:10;;;;;;;0.10;0.10;;;;;;;21.55;61.17;102176.75;5066629;28;20047;-72
2023/10/05 03:01:37;;;;;;;0.25;0.25;;;;;;;21.14;63.66;102171.28;5069362;28;20037;-72
2023/10/05 03:04:04;;;;;;;0.20;0.20;;;;;;;21.48;62.33;102172.63;5069507;28;20037;-72
2023/10/05 03:06:30;;;;;;;0.00;0.00;;;;;;;21.81;60.67;102177.72;5069700;28;20387;-70
2023/10/05 03:08:58;;;;;;;0.10;0.10;;;;;;;21.66;61.58;102183.09;5072162;28;20033;-72
2023/10/05 03:11:25;;;;;;;0.10;0.10;;;;;;;21.57;60.43;102182.78;5069792;28;20056;-71
2023/10/05 03:13:51;;;;;;;0.20;0.20;;;;;;;21.16;62.23;102178.16;5053061;28;20534;-72
2023/10/05 03:16:17;;;;;;;0.10;0.10;;;;;;;21.69;60.74;102183.41;5053009;28;20063;-73
2023/10/05 03:18:43;;;;;;;0.20;0.20;;;;;;;21.49;60.94;102176.97;5052709;28;20029;-72
2023/10/05 03:21:10;;;;;;;0.10;0.10;;;;;;;21.62;60.95;102171.03;5053382;28;20028;-72
2023/10/05 03:23:37;;;;;;;0.10;0.10;;;;;;;21.34;61.59;102171.44;5052521;28;20033;-72
2023/10/05 03:26:02;;;;;;;0.20;0.20;;;;;;;20.67;64.76;102166.53;5052754;28;20033;-72
2023/10/05 03:28:30;;;;;;;0.20;0.20;;;;;;;21.73;60.67;102178.19;5052514;28;20044;-73
2023/10/05 03:30:56;;;;;;;0.10;0.10;;;;;;;21.95;59.50;102169.84;5052652;28;20397;-72
2023/10/05 03:33:23;;;;;;;0.20;0.20;;;;;;;21.06;62.84;102166.31;5052822;28;20080;-72
2023/10/05 03:35:49;;;;;;;0.20;0.20;;;;;;;20.97;63.22;102168.69;5052955;28;20047;-72
2023/10/05 03:38:19;;;;;;;0.10;0.10;;;;;;;21.63;60.52;102173.50;5052463;28;20041;-72
2023/10/05 03:40:47;;;;;;;0.13;0.13;;;;;;;21.79;59.97;102174.41;5052599;28;20082;-72
2023/10/05 03:43:13;;;;;;;0.17;0.17;;;;;;;21.74;59.74;102175.19;5052352;28;20029;-73
2023/10/05 03:45:39;;;;;;;0.10;0.10;;;;;;;21.01;61.98;102180.78;5050743;28;20570;-71
2023/10/05 03:48:05;;;;;;;0.10;0.10;;;;;;;20.92;63.32;102182.31;5052764;28;20036;-71
2023/10/05 03:50:31;;;;;;;0.20;0.20;;;;;;;21.27;62.10;102173.56;5052186;28;20052;-71
2023/10/05 03:52:57;;;;;;;0.20;0.20;;;;;;;20.76;63.46;102175.06;5052179;28;20033;-70
2023/10/05 03:55:24;;;;;;;0.17;0.17;;;;;;;21.30;61.91;102178.50;5052145;28;20043;-71
2023/10/05 03:57:50;;;;;;;0.10;0.10;;;;;;;21.12;62.15;102187.13;5060293;28;20059;-72
2023/10/05 04:00:23;;;;;;;0.20;0.20;;;;;;;21.10;62.68;102189.31;5072665;28;20020;-72
2023/10/05 04:02:52;;;;;;;0.10;0.10;;;;;;;20.77;63.27;102187.66;5043602;28;20052;-72
2023/10/05 04:05:20;;;;;;;0.10;0.10;;;;;;;21.21;61.58;102182.84;5041744;28;20051;-71
2023/10/05 04:07:47;;;;;;;0.10;0.10;;;;;;;21.43;60.50;102187.06;5040490;28;20037;-71
2023/10/05 04:10:15;;;;;;;0.10;0.10;;;;;;;20.90;62.55;102195.41;5043492;28;20038;-72
2023/10/05 04:12:41;;;;;;;0.20;0.20;;;;;;;22.03;58.37;102199.44;5045306;28;20439;-71
2023/10/05 04:15:11;;;;;;;0.10;0.10;;;;;;;21.24;60.99;102190.50;5052235;28;20021;-72
2023/10/05 04:17:40;;;;;;;;;;;;;;;21.09;61.65;102206.81;5056414;28;20025;-71
2023/10/05 04:20:19;;;;;;;0.10;0.10;;;;;;;21.48;60.60;102205.44;5066593;28;20357;-72
2023/10/05 04:22:47;;;;;;;0.10;0.10;;;;;;;21.58;59.41;102200.81;5051892;28;20110;-71
2023/10/05 04:25:16;;;;;;;0.10;0.10;;;;;;;20.93;62.49;102203.09;5051503;28;20071;-72
2023/10/05 04:27:42;;;;;;;0.20;0.20;;;;;;;21.91;58.45;102196.09;5051594;28;20555;-72
2023/10/05 04:30:07;;;;;;;0.20;0.20;;;;;;;21.21;61.25;102196.50;5051885;28;20029;-72
2023/10/05 04:32:33;;;;;;;0.10;0.10;;;;;;;20.96;62.26;102200.66;5051689;28;20036;-72
2023/10/05 04:34:58;;;;;;;0.10;0.10;;;;;;;21.76;58.85;102202.28;5051181;28;20052;-71
2023/10/05 04:37:25;;;;;;;0.10;0.10;;;;;;;21.39;60.53;102196.91;5051611;28;20040;-71
2023/10/05 04:39:51;;;;;;;0.10;0.10;;;;;;;20.95;61.74;102190.00;5051575;28;20029;-72
2023/10/05 04:42:17;;;;;;;0.20;0.20;;;;;;;20.63;62.80;102198.19;5052098;28;20021;-72
2023/10/05 04:44:45;;;;;;;0.10;0.10;;;;;;;20.88;62.11;102192.94;5051460;28;20039;-72
2023/10/05 04:47:11;;;;;;;0.30;0.30;;;;;;;20.93;61.95;102184.78;5051404;28;20037;-72
2023/10/05 04:49:37;;;;;;;0.10;0.10;;;;;;;20.85;61.76;102192.63;5052730;28;20036;-73
2023/10/05 04:52:06;;;;;;;0.20;0.20;;;;;;;20.09;64.79;102193.72;5063207;28;20029;-73
2023/10/05 04:54:35;;;;;;;0.10;0.10;;;;;;;21.30;60.73;102200.38;5044341;28;20054;-72
2023/10/05 04:57:07;;;;;;;0.10;0.10;;;;;;;20.66;63.01;102197.66;5073737;28;20012;-72
2023/10/05 05:02:12;;;;;;;0.17;0.17;;;;;;;20.72;61.92;102203.97;5050909;28;20060;-71
2023/10/05 05:07:13;;;;;;;0.17;0.17;;;;;;;20.67;61.74;102202.03;5020498;28;20036;-73
2023/10/05 05:09:41;;;;;;;0.10;0.10;;;;;;;20.63;62.86;102200.09;5050165;28;20618;-72
2023/10/05 05:12:17;;;;;;;0.10;0.10;;;;;;;20.37;63.10;102204.47;5033122;28;20056;-73
2023/10/05 05:14:49;;;;;;;0.10;0.10;;;;;;;20.59;62.60;102209.88;5054135;28;20037;-71
2023/10/05 05:17:18;;;;;;;0.20;0.20;;;;;;;19.80;65.06;102203.19;5050212;28;20036;-71
2023/10/05 05:19:44;;;;;;;0.10;0.10;;;;;;;20.39;63.94;102209.66;5041448;28;20033;-72
2023/10/05 05:22:10;;;;;;;0.10;0.10;;;;;;;20.24;64.04;102204.88;5050774;28;20087;-72
2023/10/05 05:24:37;;;;;;;0.10;0.10;;;;;;;20.51;63.17;102213.06;5049856;28;20045;-73
2023/10/05 05:27:03;;;;;;;0.10;0.10;;;;;;;20.29;63.91;102213.09;5051129;28;20465;-71
2023/10/05 05:29:32;;;;;;;0.13;0.13;;;;;;;20.38;63.93;102216.22;5049995;28;20037;-72
2023/10/05 05:32:05;;;;;;;0.10;0.10;;;;;;;20.50;63.78;102211.44;5044858;28;20041;-71
2023/10/05 05:34:31;;;;;;;0.10;0.10;;;;;;;20.46;63.09;102205.63;5032713;28;20063;-72
2023/10/05 05:36:56;;;;;;;0.20;0.20;;;;;;;20.19;63.91;102203.97;5030101;28;20021;-70
2023/10/05 05:39:23;;;;;;;0.20;0.20;;;;;;;20.55;62.61;102212.31;5030601;28;20021;-72
2023/10/05 05:41:56;;;;;;;0.10;0.10;;;;;;;20.29;63.67;102209.53;5030088;28;20191;-73
2023/10/05 05:44:22;;;;;;;0.10;0.10;;;;;;;19.88;65.04;102211.78;5060967;28;20043;-72
2023/10/05 05:46:49;;;;;;;0.10;0.10;;;;;;;20.19;64.83;102223.06;5060989;28;20480;-72
2023/10/05 05:49:16;;;;;;;0.10;0.10;;;;;;;20.45;64.45;102225.84;5067649;28;20056;-70
2023/10/05 05:51:44;;;;;;;0.20;0.20;;;;;;;20.15;64.59;102228.19;5072931;28;20083;-72
2023/10/05 05:54:10;;;;;;;0.20;0.20;;;;;;;20.90;61.91;102220.84;5051190;28;20049;-73
2023/10/05 05:56:36;;;;;;;0.20;0.20;;;;;;;20.47;63.62;102218.22;5065056;28;20032;-71
2023/10/05 05:59:02;;;;;;;0.10;0.10;;;;;;;20.10;65.37;102215.34;5065237;28;20025;-71
2023/10/05 06:01:28;;;;;;;0.20;0.20;;;;;;;20.80;61.92;102220.75;5064803;28;20033;-71
2023/10/05 06:03:54;;;;;;;0.10;0.10;;;;;;;20.38;63.59;102224.41;5078587;28;20036;-69
2023/10/05 06:06:19;;;;;;;0.20;0.20;;;;;;;21.02;62.21;102231.63;5061587;28;20094;-71
2023/10/05 06:08:44;;;;;;;0.10;0.10;;;;;;;20.93;62.37;102223.03;5074143;28;20047;-71
2023/10/05 06:11:12;;;;;;;0.20;0.20;;;;;;;20.46;64.56;102237.59;5048442;28;20032;-72
2023/10/05 06:13:38;;;;;;;0.10;0.10;;;;;;;20.31;63.72;102234.69;5049768;28;20029;-71
2023/10/05 06:16:09;;;;;;;0.20;0.20;;;;;;;20.94;62.63;102232.91;5050000;28;20090;-72
2023/10/05 06:18:36;;;;;;;0.10;0.10;;;;;;;20.87;62.24;102234.19;5048676;28;20033;-71
2023/10/05 06:21:03;;;;;;;0.10;0.10;;;;;;;20.62;63.35;102231.19;5049835;28;20775;-72
2023/10/05 06:23:28;;;;;;;0.10;0.10;;;;;;;20.68;63.50;102236.47;5049808;28;20152;-71
2023/10/05 06:25:56;;;;;;;0.10;0.10;;;;;;;20.46;63.87;102243.06;5049573;28;20040;-72
2023/10/05 06:28:22;;;;;;;0.20;0.20;;;;;;;21.02;61.71;102250.75;5049551;28;20032;-71
2023/10/05 06:30:50;;;;;;;0.20;0.20;;;;;;;20.51;63.40;102243.94;5049543;28;20098;-71
2023/10/05 06:33:15;;;;;;;0.10;0.10;;;;;;;20.74;62.94;102245.53;5050062;28;20037;-72
2023/10/05 06:35:40;;;;;;;0.20;0.20;;;;;;;20.19;64.78;102253.09;5049462;28;20120;-74
2023/10/05 06:38:06;;;;;;;0.20;0.20;;;;;;;20.38;64.56;102249.81;5048305;28;20037;-71
2023/10/05 06:40:33;;;;;;;0.10;0.10;;;;;;;21.03;61.96;102259.78;5049447;28;20051;-72
2023/10/05 06:42:58;;;;;;;0.10;0.10;;;;;;;20.23;64.75;102262.44;5052558;28;20095;-72
2023/10/05 06:45:24;;;;;;;0.10;0.10;;;;;;;21.52;60.91;102262.06;5053875;28;20449;-71
2023/10/05 06:47:50;;;;;;;0.10;0.10;;;;;;;21.16;61.70;102262.91;5053276;28;20036;-72
2023/10/05 06:50:16;;;;;;;0.20;0.20;;;;;;;20.63;63.67;102260.19;5052957;28;20044;-72
2023/10/05 06:52:43;;;;;;;0.20;0.20;;;;;;;20.69;62.87;102267.34;5053088;28;20045;-72
2023/10/05 06:55:13;;;;;;;0.10;0.10;;;;;;;20.74;62.70;102275.59;5053000;28;20140;-71
2023/10/05 06:57:40;;;;;;;0.13;0.13;;;;;;;20.80;62.79;102274.56;5059734;28;20024;-72
2023/10/05 07:00:16;;;;;;;0.15;0.15;;;;;;;20.59;62.49;102279.00;5072787;28;20512;-73
2023/10/05 07:02:43;;;;;;;0.10;0.10;;;;;;;21.13;61.50;102277.09;5071438;28;20037;-71
2023/10/05 07:05:09;;;;;;;0.10;0.10;;;;;;;21.43;61.34;102274.59;5072925;28;20484;-72
2023/10/05 07:07:35;;;;;;;0.10;0.10;;;;;;;21.68;58.88;102280.25;5058406;28;20040;-73
2023/10/05 07:10:05;;;;;;;0.10;0.10;;;;;;;20.76;62.38;102285.19;5034113;28;20120;-71
2023/10/05 07:12:31;;;;;;;0.10;0.10;;;;;;;20.72;62.77;102280.47;5053135;28;20029;-72
2023/10/05 07:14:57;;;;;;;0.10;0.10;;;;;;;21.47;60.14;102280.38;5070868;28;20583;-71
2023/10/05 07:17:23;;;;;;;0.10;0.10;;;;;;;21.75;59.47;102289.06;5072473;28;20044;-73
2023/10/05 07:19:49;;;;;;;0.17;0.17;;;;;;;21.77;59.29;102303.31;5072701;28;20032;-72
2023/10/05 07:22:16;;;;;;;0.10;0.10;;;;;;;21.44;60.53;102295.41;5073051;28;20036;-72
2023/10/05 07:24:42;;;;;;;0.10;0.10;;;;;;;21.54;59.57;102290.00;5072933;28;20024;-72
2023/10/05 07:27:07;;;;;;;0.15;0.15;;;;;;;20.73;62.39;102295.81;5072400;28;20052;-73
2023/10/05 07:29:32;;;;;;;0.10;0.10;;;;;;;21.09;61.83;102307.94;5072280;28;20025;-71
2023/10/05 07:31:58;;;;;;;0.10;0.10;;;;;;;21.28;60.73;102301.84;5072426;28;20037;-72
2023/10/05 07:34:24;;;;;;;0.10;0.10;;;;;;;21.01;62.74;102309.25;5072240;28;20036;-73
2023/10/05 07:36:50;;;;;;;0.10;0.10;;;;;;;21.31;61.96;102316.88;5072297;28;20082;-71
2023/10/05 07:39:18;;;;;;;0.10;0.10;;;;;;;22.03;59.21;102312.53;5072960;28;20035;-71
2023/10/05 07:41:45;;;;;;;0.10;0.10;;;;;;;21.72;59.70;102319.66;5072545;28;20036;-71
2023/10/05 07:44:11;;;;;;;0.20;0.20;;;;;;;21.38;61.21;102320.25;5072285;28;20064;-72
2023/10/05 07:46:38;;;;;;;0.10;0.10;;;;;;;21.58;60.11;102323.94;5072097;28;20035;-72
2023/10/05 07:49:03;;;;;;;0.10;0.10;;;;;;;21.77;59.53;102329.84;5071811;28;20056;-73
2023/10/05 07:51:29;;;;;;;0.10;0.10;;;;;;;22.41;58.32;102327.75;5072422;28;20064;-72
2023/10/05 07:53:54;;;;;;;0.10;0.10;;;;;;;21.59;60.07;102336.56;5071349;28;20036;-70
2023/10/05 07:56:20;;;;;;;0.10;0.10;;;;;;;22.28;59.09;102334.56;5071924;28;20093;-70
2023/10/05 07:58:45;;;;;;;0.10;0.10;;;;;;;21.51;60.54;102330.72;5087370;28;20043;-71
2023/10/05 08:01:11;;;;;;;0.05;0.05;;;;;;;22.00;59.48;102334.09;5092064;28;20036;-72
2023/10/05 08:03:39;;;;;;;0.08;0.08;;;;;;;22.40;58.77;102345.28;5073881;28;20028;-72
2023/10/05 08:06:05;;;;;;;0.10;0.10;;;;;;;21.37;61.15;102344.03;5077939;28;20037;-70
2023/10/05 08:08:31;;;;;;;0.10;0.10;;;;;;;21.66;60.85;102339.88;5038571;28;20048;-71
2023/10/05 08:10:56;;;;;;;0.10;0.10;;;;;;;22.06;58.27;102342.09;5050374;28;20041;-70
2023/10/05 08:13:22;;;;;;;0.10;0.10;;;;;;;22.36;58.16;102344.16;5051463;28;20146;-71
2023/10/05 08:15:48;;;;;;;0.10;0.10;;;;;;;22.06;59.31;102336.63;5050708;28;20495;-71
2023/10/05 08:18:13;;;;;;;0.10;0.10;;;;;;;22.41;58.96;102350.50;5050837;28;20221;-71
2023/10/05 08:20:39;;;;;;;0.10;0.10;;;;;;;22.05;58.78;102356.06;5049868;28;20049;-72
2023/10/05 08:23:06;;;;;;;0.10;0.10;;;;;;;22.12;59.56;102351.16;5050678;28;20041;-72
2023/10/05 08:25:31;;;;;;;0.10;0.10;;;;;;;21.87;59.50;102354.56;5050673;28;20151;-72
2023/10/05 08:27:57;;;;;;;0.10;0.10;;;;;;;22.54;57.40;102363.69;5050565;28;20025;-72
2023/10/05 08:30:24;;;;;;;0.10;0.10;;;;;;;22.78;56.55;102363.28;5050848;28;20033;-72
2023/10/05 08:32:50;;;;;;;0.20;0.20;;;;;;;22.45;58.33;102359.00;5050432;28;20025;-71
2023/10/05 08:35:19;;;;;;;0.10;0.10;;;;;;;21.75;60.82;102362.94;5050312;28;20041;-74
2023/10/05 08:37:52;;;;;;;0.10;0.10;;;;;;;21.96;60.20;102361.19;5050768;28;20115;-71
2023/10/05 08:43:10;;;;;;;0.10;0.10;;;;;;;22.73;57.82;102364.06;5051356;28;20047;-72
2023/10/05 08:45:46;;;;;;;0.10;0.10;;;;;;;22.19;59.87;102358.03;5051959;28;20036;-72
2023/10/05 08:48:46;;;;;;;0.10;0.10;;;;;;;22.54;57.50;102369.16;5051132;28;20049;-71
2023/10/05 08:51:11;;;;;;;0.10;0.10;;;;;;;22.24;58.91;102370.94;5049775;28;20138;-71
2023/10/05 08:53:42;;;;;;;0.10;0.10;;;;;;;23.68;54.84;102373.56;5051100;28;20060;-72
2023/10/05 08:56:14;;;;;;;0.10;0.10;;;;;;;23.40;55.52;102381.25;5050854;28;20033;-72
2023/10/05 08:58:46;;;;;;;0.05;0.05;;;;;;;22.80;58.06;102383.81;5064889;28;20036;-71
2023/10/05 09:01:24;;;;;;;0.10;0.10;;;;;;;23.27;56.84;102378.19;5064711;28;20118;-73
2023/10/05 09:03:53;;;;;;;0.10;0.10;;;;;;;22.86;57.35;102376.47;5050596;28;20094;-72
2023/10/05 09:06:24;;;;;;;0.10;0.10;;;;;;;23.22;56.65;102381.75;5050152;28;20013;-72
2023/10/05 09:11:32;;;;;;;0.10;0.10;;;;;;;22.95;58.41;102397.59;5050262;28;20037;-72
2023/10/05 09:14:18;;;;;;;0.03;0.03;;;;;;;22.80;57.92;102399.47;5051934;28;20039;-72
2023/10/05 09:16:47;;;;;;;0.10;0.10;;;;;;;23.04;57.10;102403.38;5069479;28;20029;-72
2023/10/05 09:19:26;;;;;;;0.00;0.00;;;;;;;22.82;57.99;102408.25;5069046;28;20015;-72
2023/10/05 09:24:26;;;;;;;0.05;0.05;;;;;;;23.19;56.83;102406.97;5049336;28;20033;-72
2023/10/05 09:26:52;;;;;;;0.10;0.10;;;;;;;23.07;57.15;102414.66;5050064;28;20045;-72
2023/10/05 09:29:32;;;;;;;0.10;0.10;;;;;;;22.77;58.15;102417.28;5050059;28;20489;-73
2023/10/05 09:31:59;;;;;;;0.00;0.00;;;;;;;22.38;58.92;102424.16;5050367;28;20489;-73
2023/10/05 09:34:38;;;;;;;0.10;0.10;;;;;;;23.74;56.34;102424.63;5050530;28;20025;-73
2023/10/05 09:37:06;;;;;;;0.10;0.10;;;;;;;23.26;56.52;102429.50;5050261;28;20033;-72
2023/10/05 09:39:49;;;;;;;0.10;0.10;;;;;;;23.38;56.65;102434.75;5066745;28;20116;-73
2023/10/05 09:42:16;;;;;;;0.00;0.00;;;;;;;22.99;57.44;102437.09;5069957;28;20043;-72
2023/10/05 09:44:51;;;;;;;0.10;0.10;;;;;;;23.02;58.60;102435.72;5069424;28;20036;-72
2023/10/05 09:47:19;;;;;;;0.00;0.00;;;;;;;22.57;59.02;102434.44;5069027;28;20044;-72
2023/10/05 09:49:46;;;;;;;0.00;0.00;;;;;;;24.05;55.39;102437.28;5062140;28;20037;-72
2023/10/05 09:52:12;;;;;;;0.10;0.10;;;;;;;23.52;56.17;102433.97;5040812;28;20044;-73
2023/10/05 09:54:40;;;;;;;0.00;0.00;;;;;;;22.88;57.84;102445.56;5030586;28;20125;-73
2023/10/05 09:57:10;;;;;;;0.10;0.10;;;;;;;23.81;56.32;102442.47;5036602;28;20110;-71
2023/10/05 09:59:44;;;;;;;0.10;0.10;;;;;;;22.87;58.43;102432.94;5037171;28;20567;-73
2023/10/05 10:02:16;;;;;;;0.10;0.10;;;;;;;23.07;58.37;102444.81;5049516;28;20025;-71
2023/10/05 10:04:42;;;;;;;0.05;0.05;;;;;;;23.23;57.18;102437.44;5031721;28;20025;-72
2023/10/05 10:07:49;;;;;;;0.10;0.10;;;;;;;22.95;58.13;102427.75;5050277;28;20100;-73
2023/10/05 10:10:04;;;;;;;0.10;0.10;;;;;;;23.47;56.91;102433.94;5028994;28;20053;-72
2023/10/05 10:12:33;;;;;;;0.10;0.10;;;;;;;23.83;56.57;102434.78;5040884;28;20090;-72
2023/10/05 10:14:59;;;;;;;0.10;0.10;;;;;;;23.49;57.12;102428.19;5049647;28;20037;-71
2023/10/05 10:17:32;;;;;;;0.00;0.00;;;;;;;24.02;55.78;102430.41;5051308;28;20120;-73
2023/10/05 10:20:17;;;;;;;0.10;0.10;;;;;;;24.20;54.47;102426.25;5053868;28;20099;-71
2023/10/05 10:23:00;;;;;;;0.10;0.10;;;;;;;24.02;55.43;102418.59;5053859;28;20362;-72
2023/10/05 10:25:30;;;;;;;0.08;0.08;;;;;;;23.70;56.85;102437.25;5053027;28;20028;-72
2023/10/05 10:28:14;;;;;;;0.00;0.00;;;;;;;25.46;51.77;102437.59;5074029;28;20579;-73
2023/10/05 10:30:43;;;;;;;0.10;0.10;;;;;;;24.31;54.51;102433.41;5073541;28;20040;-72
2023/10/05 10:33:30;;;;;;;0.00;0.00;;;;;;;24.46;53.87;102430.59;5073670;28;20081;-71
2023/10/05 10:35:58;;;;;;;0.10;0.10;;;;;;;26.32;49.35;102432.16;5073563;28;20416;-72
2023/10/05 10:38:24;;;;;;;0.00;0.00;;;;;;;25.25;52.21;102430.56;5073408;28;20350;-72
2023/10/05 10:41:09;;;;;;;0.10;0.10;;;;;;;24.94;52.39;102445.59;5073315;28;20036;-72
2023/10/05 10:43:36;;;;;;;0.05;0.05;;;;;;;24.52;53.07;102440.50;5073331;28;20077;-70
2023/10/05 10:46:07;;;;;;;0.00;0.00;;;;;;;24.47;53.78;102453.44;5073823;28;20021;-70
2023/10/05 10:48:36;;;;;;;0.03;0.03;;;;;;;23.80;55.81;102448.25;5073302;28;20123;-72
2023/10/05 10:51:10;;;;;;;0.10;0.10;;;;;;;24.67;53.18;102447.88;5073076;28;20056;-72
2023/10/05 10:53:39;;;;;;;0.00;0.00;;;;;;;24.53;53.64;102439.38;5072768;28;20106;-71
2023/10/05 10:56:06;;;;;;;0.00;0.00;;;;;;;25.08;52.24;102449.38;5072881;28;20047;-72
2023/10/05 10:58:33;;;;;;;0.10;0.10;;;;;;;24.14;54.31;102457.59;5086697;28;20125;-69
2023/10/05 11:01:13;;;;;;;0.00;0.00;;;;;;;24.39;54.00;102452.06;5094217;28;20050;-73
2023/10/05 11:03:41;;;;;;;0.00;0.00;;;;;;;23.99;54.59;102447.44;5093411;28;20483;-73
2023/10/05 11:06:09;;;;;;;0.03;0.03;;;;;;;24.39;54.52;102450.13;5093457;28;20028;-72
2023/10/05 11:08:40;;;;;;;0.00;0.00;;;;;;;24.21;54.23;102441.66;5093545;28;20032;-72
2023/10/05 11:11:15;;;;;;;0.10;0.10;;;;;;;24.49;53.06;102452.03;5093174;28;20124;-72
2023/10/05 11:13:45;;;;;;;0.00;0.00;;;;;;;23.89;54.59;102455.66;5052570;28;20538;-70
2023/10/05 11:16:11;;;;;;;0.00;0.00;;;;;;;23.88;55.31;102444.97;5063476;28;20074;-69
2023/10/05 11:18:57;;;;;;;0.00;0.00;;;;;;;24.18;54.70;102444.94;5072742;28;20048;-72
2023/10/05 11:21:25;;;;;;;0.00;0.00;;;;;;;24.04;54.79;102452.09;5072950;28;20642;-70
2023/10/05 11:23:56;;;;;;;0.00;0.00;;;;;;;23.99;55.84;102449.34;5072849;28;20044;-73
2023/10/05 11:26:35;;;;;;;0.00;0.00;;;;;;;25.14;52.73;102442.72;5072411;28;20032;-72
2023/10/05 11:29:07;;;;;;;0.00;0.00;;;;;;;24.88;53.08;102438.47;5071645;28;20112;-73
2023/10/05 11:31:34;;;;;;;0.00;0.00;;;;;;;24.54;53.88;102445.69;5072628;28;20666;-70
2023/10/05 11:34:09;;;;;;;0.00;0.00;;;;;;;25.14;52.50;102439.97;5073096;28;20017;-72
2023/10/05 11:36:40;;;;;;;0.00;0.00;;;;;;;24.21;54.44;102438.91;5072696;28;20553;-71
2023/10/05 11:39:20;;;;;;;0.00;0.00;;;;;;;24.73;53.44;102444.00;5072337;28;20510;-71
2023/10/05 11:41:46;;;;;;;0.00;0.00;;;;;;;24.69;52.74;102457.47;5072393;28;20555;-74
2023/10/05 11:44:14;;;;;;;0.00;0.00;;;;;;;25.49;51.16;102442.53;5072331;28;20028;-71
2023/10/05 11:46:46;;;;;;;0.00;0.00;;;;;;;24.51;54.06;102449.03;5072275;28;20056;-70
2023/10/05 11:49:13;;;;;;;0.00;0.00;;;;;;;24.11;55.40;102437.00;5054444;28;20024;-72
2023/10/05 11:51:41;;;;;;;0.00;0.00;;;;;;;24.92;53.40;102442.28;5072076;28;20052;-72
2023/10/05 11:54:11;;;;;;;0.00;0.00;;;;;;;25.06;53.09;102441.38;5072073;28;20039;-72
2023/10/05 11:56:40;;;;;;;0.00;0.00;;;;;;;25.15;51.93;102449.88;5072228;28;20040;-70
2023/10/05 11:59:07;;;;;;;0.00;0.00;;;;;;;24.29;55.32;102441.91;5090527;28;20399;-73
2023/10/05 12:01:33;;;;;;;0.00;0.00;;;;;;;25.36;52.36;102451.41;5092508;28;20438;-70